Impacts METAR Board
IDs:

KBOS - Boston/Logan Intl, MA, US

Updated at: 0600 UTC 07 Dec 2022
Potential Impact None Slight Moderate High
Time 06/18Z 06/19Z 06/20Z 06/21Z 06/22Z 06/23Z 07/00Z 07/01Z 07/02Z 07/03Z 07/04Z 07/05Z 07/06Z
Temp52 53 54 51 50 49 50 50 49 49 49 50 49
Dewpt44 43 42 42 45 45 46 47 47 47 47 47 47
Altim30.40 30.39 30.40 30.40 30.41 30.42 30.41 30.41 30.41 30.40 30.39 30.38 30.36
VIS10 10 10 10 10 10 10 10 10 10 9 10 6
CIG200 200 50 95 90 90 95 85 75 65 60 42 39
CoverOVCOVCOVCOVCOVCOVCOVCOVCOVCOVCOVCOVCOVC
FltCatVFRVFRVFRVFRVFRVFRVFRVFRVFRVFRVFRVFRVFR
WX-------------RA-RA---RA-RA--RA BR
WDir8012016012011090120110120110110120100
WSpd6 7 7 4 7 6 9 5 6 5 8 8 9
WGst-- -- -- -- -- -- -- -- -- -- -- -- --
Raw hourly METARs
KBOS 061754Z 08006KT 10SM FEW060 FEW140 OVC200 11/07 A3040 RMK AO2 SLP294 T01110067 10122 20067 56015
KBOS 061854Z 12007KT 10SM FEW060 SCT130 OVC200 12/06 A3039 RMK AO2 SLP290 T01170061
KBOS 061954Z 16007KT 10SM BKN050 BKN120 OVC200 12/06 A3040 RMK AO2 SLP294 T01220056
KBOS 062054Z 12004KT 10SM FEW055 BKN095 OVC210 11/06 A3040 RMK AO2 SLP294 T01060056 53000
KBOS 062154Z 11007KT 10SM FEW050 BKN090 OVC210 10/07 A3041 RMK AO2 SLP297 T01000072
KBOS 062254Z 09006KT 10SM BKN090 OVC220 09/07 A3042 RMK AO2 SLP299 T00940072
KBOS 062354Z 12009KT 10SM -RA FEW045 OVC095 10/08 A3041 RMK AO2 RAB14 SLP297 P0001 60001 T01000078 10128 20094 50003
KBOS 070054Z 11005KT 10SM -RA FEW042 OVC085 10/08 A3041 RMK AO2 SLP296 P0004 T01000083
KBOS 070154Z 12006KT 10SM FEW032 OVC075 09/08 A3041 RMK AO2 RAE24 SLP295 P0000 T00940083
KBOS 070254Z 11005KT 10SM -RA FEW011 FEW033 OVC065 09/08 A3040 RMK AO2 RAB35 SLP295 P0001 60005 T00940083 56002
KBOS 070354Z 11008KT 9SM -RA SCT045 OVC060 09/08 A3039 RMK AO2 CIG 045 E SLP289 P0003 T00940083
KBOS 070454Z 12008KT 10SM OVC042 10/08 A3038 RMK AO2 RAE19 SLP286 P0000 T01000083 401280044
KBOS 070554Z 10009KT 6SM RA BR OVC039 09/08 A3036 RMK AO2 RAB26 SLP280 P0002 60010 T00940083 10100 20089 58014



Page loaded:  06:06 UTC  |   10:06 PM Pacific  |   11:06 PM Mountain  |   12:06 AM Central  |   01:06 AM Eastern

 

ADVISORIES

FORECASTS

FORECASTS

OBSERVATIONS

USER TOOLS

ABOUT US